DLH4WF EDDF-EGPH
Flight info
| Callsign | DLH4WF |
|---|---|
| Flight time | 1h 33m |
| Altitude | 24000 |
| Route | MARUN3W/25C MARUN Y152 ARPEG/N0437F380 Z850 ABILU DCT RKN DCT PREXA L602 AMGOD DCT MIMVA L602 EMLON M79 TENDO DCT AGPED |
| Aircraft | A320/M-SDE2E3FGIJ1LORWXYZ/HB1 |
Departure
| Time | 2026-04-18 09:20 |
|---|---|
| Airport | Frankfurt Main Airport (EDDF) |
Arrival
| Time | 2026-04-18 10:53 |
|---|---|
| Airport | Edinburgh Airport (EGPH) |
| Time | Latitude | Longitude | Altitude | Speed | Heading |
|---|---|---|---|---|---|
| 2026-04-18 08:09 | 50.04653 | 8.57059 | 356 ft | 0 kts | 90° |
| 2026-04-18 09:10 | 50.04653 | 8.57058 | 356 ft | 1 kts | 90° |
| 2026-04-18 09:10 | 50.04653 | 8.57021 | 356 ft | 4 kts | 91° |
| 2026-04-18 09:11 | 50.04653 | 8.56981 | 356 ft | 4 kts | 102° |
| 2026-04-18 09:11 | 50.04664 | 8.56952 | 361 ft | 4 kts | 168° |
| 2026-04-18 09:11 | 50.04681 | 8.56954 | 358 ft | 0 kts | 205° |
| 2026-04-18 09:11 | 50.04666 | 8.56943 | 360 ft | 4 kts | 204° |
| 2026-04-18 09:12 | 50.04647 | 8.56929 | 358 ft | 0 kts | 204° |
| 2026-04-18 09:14 | 50.04622 | 8.56916 | 356 ft | 6 kts | 195° |
| 2026-04-18 09:14 | 50.04581 | 8.56901 | 357 ft | 7 kts | 193° |
| 2026-04-18 09:15 | 50.04528 | 8.56881 | 359 ft | 11 kts | 193° |
| 2026-04-18 09:15 | 50.04446 | 8.56853 | 366 ft | 12 kts | 188° |
| 2026-04-18 09:15 | 50.04375 | 8.56836 | 360 ft | 9 kts | 191° |
| 2026-04-18 09:15 | 50.04302 | 8.56822 | 360 ft | 12 kts | 168° |
| 2026-04-18 09:16 | 50.04281 | 8.56925 | 359 ft | 13 kts | 73° |
| 2026-04-18 09:16 | 50.04317 | 8.57075 | 362 ft | 16 kts | 70° |
| 2026-04-18 09:16 | 50.04357 | 8.57245 | 365 ft | 18 kts | 69° |
| 2026-04-18 09:16 | 50.04402 | 8.57430 | 365 ft | 19 kts | 69° |
| 2026-04-18 09:17 | 50.04432 | 8.57587 | 365 ft | 7 kts | 91° |
| 2026-04-18 09:17 | 50.04420 | 8.57625 | 366 ft | 2 kts | 128° |
| 2026-04-18 09:17 | 50.04403 | 8.57645 | 366 ft | 4 kts | 151° |
| 2026-04-18 09:17 | 50.04380 | 8.57659 | 367 ft | 3 kts | 160° |
| 2026-04-18 09:18 | 50.04313 | 8.57696 | 362 ft | 15 kts | 160° |
| 2026-04-18 09:18 | 50.04262 | 8.57644 | 367 ft | 4 kts | 249° |
| 2026-04-18 09:18 | 50.04261 | 8.57642 | 367 ft | 0 kts | 249° |
| 2026-04-18 09:19 | 50.04257 | 8.57627 | 364 ft | 10 kts | 248° |
| 2026-04-18 09:19 | 50.04138 | 8.57124 | 367 ft | 86 kts | 249° |
| 2026-04-18 09:19 | 50.03860 | 8.55963 | 359 ft | 144 kts | 249° |
| 2026-04-18 09:19 | 50.03460 | 8.54288 | 490 ft | 174 kts | 249° |
| 2026-04-18 09:20 | 50.03040 | 8.52557 | 1252 ft | 171 kts | 251° |
| 2026-04-18 09:20 | 50.02607 | 8.50818 | 1876 ft | 178 kts | 247° |
| 2026-04-18 09:20 | 50.01826 | 8.49181 | 2194 ft | 202 kts | 223° |
| 2026-04-18 09:20 | 50.00550 | 8.48065 | 2668 ft | 217 kts | 196° |
| 2026-04-18 09:21 | 49.99039 | 8.47712 | 3384 ft | 222 kts | 188° |
| 2026-04-18 09:21 | 49.97503 | 8.47400 | 4189 ft | 222 kts | 189° |
| 2026-04-18 09:21 | 49.95979 | 8.47020 | 5028 ft | 222 kts | 197° |
| 2026-04-18 09:21 | 49.94498 | 8.46329 | 5854 ft | 223 kts | 198° |
| 2026-04-18 09:22 | 49.92977 | 8.45603 | 6376 ft | 239 kts | 201° |
| 2026-04-18 09:22 | 49.91572 | 8.44210 | 7068 ft | 245 kts | 227° |
| 2026-04-18 09:22 | 49.90737 | 8.41908 | 7836 ft | 250 kts | 255° |
| 2026-04-18 09:22 | 49.90717 | 8.39207 | 8626 ft | 256 kts | 284° |
| 2026-04-18 09:23 | 49.91572 | 8.36789 | 9426 ft | 262 kts | 314° |
| 2026-04-18 09:23 | 49.93116 | 8.35237 | 10099 ft | 275 kts | 334° |
| 2026-04-18 09:23 | 49.94930 | 8.34018 | 10452 ft | 293 kts | 336° |
| 2026-04-18 09:23 | 49.96894 | 8.32759 | 10664 ft | 317 kts | 336° |
| 2026-04-18 09:24 | 49.99008 | 8.31419 | 10862 ft | 339 kts | 336° |
| 2026-04-18 09:24 | 50.01282 | 8.30377 | 11325 ft | 352 kts | 352° |
| 2026-04-18 09:24 | 50.03745 | 8.30548 | 11975 ft | 359 kts | 8° |
| 2026-04-18 09:24 | 50.06225 | 8.30973 | 12679 ft | 360 kts | 358° |
| 2026-04-18 09:25 | 50.08735 | 8.30977 | 13398 ft | 362 kts | 357° |
| 2026-04-18 09:25 | 50.11265 | 8.30938 | 14111 ft | 364 kts | 356° |
| 2026-04-18 09:25 | 50.13809 | 8.30891 | 14736 ft | 367 kts | 356° |
| 2026-04-18 09:25 | 50.16377 | 8.30850 | 15340 ft | 371 kts | 356° |
| 2026-04-18 09:26 | 50.18964 | 8.30825 | 15937 ft | 374 kts | 356° |
| 2026-04-18 09:26 | 50.21578 | 8.30816 | 16522 ft | 377 kts | 357° |
| 2026-04-18 09:26 | 50.24217 | 8.30817 | 17088 ft | 381 kts | 357° |
| 2026-04-18 09:26 | 50.26845 | 8.30824 | 17650 ft | 384 kts | 357° |
| 2026-04-18 09:27 | 50.29527 | 8.30829 | 18207 ft | 388 kts | 356° |
| 2026-04-18 09:27 | 50.32244 | 8.30832 | 18709 ft | 392 kts | 356° |
| 2026-04-18 09:27 | 50.34978 | 8.30834 | 19159 ft | 395 kts | 356° |
| 2026-04-18 09:27 | 50.37741 | 8.30835 | 19626 ft | 398 kts | 356° |
| 2026-04-18 09:28 | 50.40522 | 8.30835 | 20086 ft | 402 kts | 356° |
| 2026-04-18 09:28 | 50.43329 | 8.30835 | 20557 ft | 404 kts | 356° |
| 2026-04-18 09:28 | 50.46113 | 8.30834 | 21006 ft | 407 kts | 356° |
| 2026-04-18 09:28 | 50.48961 | 8.30833 | 21456 ft | 410 kts | 356° |
| 2026-04-18 09:29 | 50.51822 | 8.30832 | 21894 ft | 413 kts | 356° |
| 2026-04-18 09:29 | 50.54706 | 8.30834 | 22335 ft | 416 kts | 356° |
| 2026-04-18 09:29 | 50.57613 | 8.30836 | 22762 ft | 419 kts | 356° |
| 2026-04-18 09:29 | 50.60539 | 8.30837 | 23200 ft | 422 kts | 356° |
| 2026-04-18 09:30 | 50.63485 | 8.30836 | 23618 ft | 425 kts | 356° |
| 2026-04-18 09:30 | 50.66455 | 8.30833 | 23982 ft | 428 kts | 356° |
| 2026-04-18 09:30 | 50.69403 | 8.30836 | 24331 ft | 430 kts | 356° |
| 2026-04-18 09:30 | 50.72400 | 8.30839 | 24685 ft | 432 kts | 356° |
| 2026-04-18 09:31 | 50.75417 | 8.30839 | 25032 ft | 434 kts | 356° |
| 2026-04-18 09:31 | 50.78449 | 8.30839 | 25361 ft | 437 kts | 356° |
| 2026-04-18 09:31 | 50.81490 | 8.30846 | 25686 ft | 439 kts | 356° |
| 2026-04-18 09:31 | 50.84552 | 8.30846 | 26040 ft | 440 kts | 356° |
| 2026-04-18 09:32 | 50.87621 | 8.30821 | 26363 ft | 442 kts | 356° |
| 2026-04-18 09:32 | 50.90662 | 8.30782 | 26691 ft | 444 kts | 356° |
| 2026-04-18 09:32 | 50.93758 | 8.30735 | 27010 ft | 446 kts | 356° |
| 2026-04-18 09:32 | 50.96863 | 8.30678 | 27320 ft | 448 kts | 354° |
| 2026-04-18 09:33 | 50.99948 | 8.30177 | 27628 ft | 445 kts | 346° |
| 2026-04-18 09:33 | 51.02941 | 8.28928 | 27925 ft | 443 kts | 337° |
| 2026-04-18 09:33 | 51.05754 | 8.26985 | 28221 ft | 441 kts | 328° |
| 2026-04-18 09:33 | 51.08434 | 8.24618 | 28487 ft | 442 kts | 327° |
| 2026-04-18 09:34 | 51.11126 | 8.22219 | 28767 ft | 444 kts | 327° |
| 2026-04-18 09:34 | 51.13826 | 8.19807 | 29050 ft | 446 kts | 327° |
| 2026-04-18 09:34 | 51.16535 | 8.17384 | 29354 ft | 448 kts | 327° |
| 2026-04-18 09:34 | 51.19224 | 8.14979 | 29586 ft | 450 kts | 327° |
| 2026-04-18 09:35 | 51.21951 | 8.12544 | 29944 ft | 449 kts | 327° |
| 2026-04-18 09:35 | 51.24678 | 8.10103 | 30328 ft | 448 kts | 326° |
| 2026-04-18 09:35 | 51.27393 | 8.07665 | 30646 ft | 448 kts | 326° |
| 2026-04-18 09:35 | 51.30106 | 8.05226 | 30967 ft | 448 kts | 326° |
| 2026-04-18 09:36 | 51.32826 | 8.02782 | 31273 ft | 448 kts | 326° |
| 2026-04-18 09:36 | 51.35540 | 8.00343 | 31579 ft | 448 kts | 326° |
| 2026-04-18 09:36 | 51.38219 | 7.97932 | 31880 ft | 447 kts | 326° |
| 2026-04-18 09:36 | 51.40823 | 7.95263 | 32180 ft | 442 kts | 318° |
| 2026-04-18 09:37 | 51.43111 | 7.92047 | 32489 ft | 436 kts | 310° |
| 2026-04-18 09:37 | 51.45250 | 7.88586 | 32796 ft | 436 kts | 310° |
| 2026-04-18 09:37 | 51.47384 | 7.85146 | 33104 ft | 435 kts | 310° |
| 2026-04-18 09:37 | 51.49519 | 7.81700 | 33417 ft | 435 kts | 310° |
| 2026-04-18 09:38 | 51.51650 | 7.78256 | 33735 ft | 434 kts | 310° |
| 2026-04-18 09:38 | 51.53776 | 7.74822 | 34047 ft | 434 kts | 310° |
| 2026-04-18 09:38 | 51.55903 | 7.71382 | 34387 ft | 433 kts | 309° |
| 2026-04-18 09:38 | 51.57996 | 7.67988 | 34605 ft | 434 kts | 309° |
| 2026-04-18 09:39 | 51.60115 | 7.64544 | 34840 ft | 434 kts | 309° |
| 2026-04-18 09:39 | 51.62239 | 7.61089 | 35086 ft | 434 kts | 309° |
| 2026-04-18 09:39 | 51.64358 | 7.57637 | 35340 ft | 433 kts | 309° |
| 2026-04-18 09:39 | 51.66471 | 7.54188 | 35587 ft | 432 kts | 309° |
| 2026-04-18 09:40 | 51.68578 | 7.50740 | 35826 ft | 432 kts | 309° |
| 2026-04-18 09:40 | 51.70682 | 7.47292 | 36059 ft | 431 kts | 309° |
| 2026-04-18 09:40 | 51.72785 | 7.43840 | 36165 ft | 432 kts | 309° |
| 2026-04-18 09:40 | 51.74858 | 7.40427 | 36192 ft | 432 kts | 309° |
| 2026-04-18 09:41 | 51.79061 | 7.33496 | 36191 ft | 432 kts | 309° |
| 2026-04-18 09:41 | 51.83267 | 7.26552 | 36201 ft | 433 kts | 308° |
| 2026-04-18 09:42 | 51.87491 | 7.19568 | 36195 ft | 435 kts | 308° |
| 2026-04-18 09:42 | 51.91725 | 7.12560 | 36195 ft | 435 kts | 308° |
| 2026-04-18 09:43 | 51.95928 | 7.05590 | 36194 ft | 435 kts | 308° |
| 2026-04-18 09:43 | 52.00147 | 6.98546 | 36194 ft | 435 kts | 308° |
| 2026-04-18 09:44 | 52.04354 | 6.91489 | 36195 ft | 435 kts | 308° |
| 2026-04-18 09:44 | 52.08558 | 6.84420 | 36220 ft | 435 kts | 308° |
| 2026-04-18 09:45 | 52.12581 | 6.77192 | 36203 ft | 429 kts | 299° |
| 2026-04-18 09:45 | 52.15314 | 6.68727 | 36187 ft | 420 kts | 287° |
| 2026-04-18 09:46 | 52.17591 | 6.59956 | 36185 ft | 421 kts | 288° |
| 2026-04-18 09:46 | 52.19863 | 6.51229 | 36178 ft | 421 kts | 288° |
| 2026-04-18 09:47 | 52.22136 | 6.42427 | 36176 ft | 421 kts | 287° |
| 2026-04-18 09:47 | 52.24392 | 6.33610 | 36205 ft | 421 kts | 287° |
| 2026-04-18 09:48 | 52.26642 | 6.24799 | 36205 ft | 420 kts | 287° |
| 2026-04-18 09:48 | 52.28887 | 6.15990 | 36204 ft | 420 kts | 287° |
| 2026-04-18 09:49 | 52.31125 | 6.07171 | 36202 ft | 420 kts | 287° |
| 2026-04-18 09:49 | 52.33335 | 5.98423 | 36198 ft | 419 kts | 287° |
| 2026-04-18 09:50 | 52.35549 | 5.89608 | 36224 ft | 419 kts | 287° |
| 2026-04-18 09:50 | 52.37756 | 5.80789 | 36214 ft | 418 kts | 287° |
| 2026-04-18 09:51 | 52.39955 | 5.71974 | 36227 ft | 418 kts | 287° |
| 2026-04-18 09:51 | 52.42135 | 5.63222 | 36214 ft | 418 kts | 287° |
| 2026-04-18 09:52 | 52.44314 | 5.54395 | 36202 ft | 418 kts | 287° |
| 2026-04-18 09:52 | 52.46486 | 5.45568 | 36224 ft | 418 kts | 287° |
| 2026-04-18 09:53 | 52.48665 | 5.36731 | 36209 ft | 418 kts | 286° |
| 2026-04-18 09:53 | 52.50819 | 5.27949 | 36199 ft | 418 kts | 286° |
| 2026-04-18 09:54 | 52.52974 | 5.19104 | 36197 ft | 418 kts | 286° |
| 2026-04-18 09:54 | 52.55122 | 5.10237 | 36187 ft | 418 kts | 286° |
| 2026-04-18 09:55 | 52.57266 | 5.01359 | 36196 ft | 418 kts | 286° |
| 2026-04-18 09:55 | 52.59389 | 4.92523 | 36213 ft | 418 kts | 286° |
| 2026-04-18 09:56 | 52.61525 | 4.83612 | 36210 ft | 419 kts | 286° |
| 2026-04-18 09:56 | 52.63661 | 4.74688 | 36203 ft | 419 kts | 286° |
| 2026-04-18 09:57 | 52.65790 | 4.65741 | 36205 ft | 420 kts | 286° |
| 2026-04-18 09:57 | 52.67893 | 4.56852 | 36226 ft | 420 kts | 286° |
| 2026-04-18 09:58 | 52.70079 | 4.47900 | 36220 ft | 424 kts | 291° |
| 2026-04-18 09:58 | 52.73316 | 4.39662 | 36221 ft | 430 kts | 298° |
| 2026-04-18 09:59 | 52.76450 | 4.31318 | 36200 ft | 426 kts | 293° |
| 2026-04-18 10:00 | 52.80776 | 4.18557 | 36201 ft | 426 kts | 293° |
| 2026-04-18 10:00 | 52.83664 | 4.10009 | 36200 ft | 426 kts | 293° |
| 2026-04-18 10:01 | 52.86549 | 4.01445 | 36231 ft | 426 kts | 293° |
| 2026-04-18 10:01 | 52.89407 | 3.92927 | 36216 ft | 426 kts | 293° |
| 2026-04-18 10:02 | 52.92277 | 3.84336 | 36208 ft | 427 kts | 293° |
| 2026-04-18 10:02 | 52.95147 | 3.75708 | 36310 ft | 427 kts | 293° |
| 2026-04-18 10:02 | 52.96581 | 3.71393 | 36507 ft | 427 kts | 293° |
| 2026-04-18 10:03 | 52.98015 | 3.67073 | 36700 ft | 428 kts | 293° |
| 2026-04-18 10:03 | 52.99430 | 3.62801 | 36878 ft | 428 kts | 293° |
| 2026-04-18 10:03 | 53.00859 | 3.58472 | 37083 ft | 428 kts | 293° |
| 2026-04-18 10:03 | 53.02284 | 3.54142 | 37278 ft | 428 kts | 293° |
| 2026-04-18 10:04 | 53.03712 | 3.49800 | 37424 ft | 429 kts | 294° |
| 2026-04-18 10:04 | 53.05143 | 3.45451 | 37574 ft | 429 kts | 294° |
| 2026-04-18 10:04 | 53.06574 | 3.41105 | 37757 ft | 429 kts | 294° |
| 2026-04-18 10:04 | 53.08005 | 3.36745 | 37918 ft | 429 kts | 294° |
| 2026-04-18 10:05 | 53.09399 | 3.32365 | 38089 ft | 426 kts | 289° |
| 2026-04-18 10:05 | 53.10422 | 3.27768 | 38197 ft | 422 kts | 281° |
| 2026-04-18 10:05 | 53.11068 | 3.23088 | 38179 ft | 420 kts | 278° |
| 2026-04-18 10:06 | 53.12327 | 3.13579 | 38178 ft | 421 kts | 278° |
| 2026-04-18 10:06 | 53.13588 | 3.04073 | 38214 ft | 421 kts | 278° |
| 2026-04-18 10:07 | 53.14837 | 2.94553 | 38196 ft | 421 kts | 278° |
| 2026-04-18 10:07 | 53.16070 | 2.85096 | 38200 ft | 421 kts | 278° |
| 2026-04-18 10:08 | 53.17310 | 2.75554 | 38204 ft | 421 kts | 278° |
| 2026-04-18 10:08 | 53.18534 | 2.66003 | 38207 ft | 421 kts | 278° |
| 2026-04-18 10:09 | 53.19738 | 2.56506 | 38209 ft | 421 kts | 278° |
| 2026-04-18 10:09 | 53.21660 | 2.47240 | 38223 ft | 430 kts | 295° |
| 2026-04-18 10:10 | 53.24880 | 2.38756 | 38224 ft | 433 kts | 297° |
| 2026-04-18 10:10 | 53.28107 | 2.30259 | 38216 ft | 433 kts | 297° |
| 2026-04-18 10:11 | 53.31320 | 2.21734 | 38214 ft | 434 kts | 297° |
| 2026-04-18 10:11 | 53.34514 | 2.13254 | 38206 ft | 434 kts | 297° |
| 2026-04-18 10:12 | 53.37724 | 2.04704 | 38238 ft | 434 kts | 297° |
| 2026-04-18 10:12 | 53.40927 | 1.96138 | 38221 ft | 434 kts | 297° |
| 2026-04-18 10:13 | 53.44111 | 1.87622 | 38212 ft | 434 kts | 297° |
| 2026-04-18 10:13 | 53.47310 | 1.79037 | 38209 ft | 434 kts | 297° |
| 2026-04-18 10:14 | 53.50494 | 1.70431 | 38208 ft | 434 kts | 297° |
| 2026-04-18 10:14 | 53.53674 | 1.61809 | 38208 ft | 434 kts | 297° |
| 2026-04-18 10:15 | 53.56853 | 1.53183 | 38224 ft | 434 kts | 297° |
| 2026-04-18 10:15 | 53.60000 | 1.44598 | 38215 ft | 434 kts | 297° |
| 2026-04-18 10:16 | 53.63173 | 1.35952 | 38209 ft | 434 kts | 297° |
| 2026-04-18 10:16 | 53.66327 | 1.27295 | 38205 ft | 433 kts | 297° |
| 2026-04-18 10:17 | 53.69456 | 1.18681 | 38200 ft | 433 kts | 296° |
| 2026-04-18 10:17 | 53.72600 | 1.10001 | 38199 ft | 433 kts | 296° |
| 2026-04-18 10:18 | 53.75732 | 1.01298 | 38215 ft | 434 kts | 296° |
| 2026-04-18 10:18 | 53.78323 | 0.94061 | 38205 ft | 433 kts | 296° |
| 2026-04-18 10:19 | 53.81443 | 0.85346 | 38200 ft | 433 kts | 296° |
| 2026-04-18 10:19 | 53.85075 | 0.75207 | 38193 ft | 433 kts | 296° |
| 2026-04-18 10:20 | 53.87663 | 0.67942 | 38192 ft | 433 kts | 296° |
| 2026-04-18 10:20 | 53.90760 | 0.59180 | 38192 ft | 433 kts | 296° |
| 2026-04-18 10:21 | 53.93850 | 0.50407 | 38211 ft | 434 kts | 296° |
| 2026-04-18 10:21 | 53.97449 | 0.40189 | 38197 ft | 434 kts | 296° |
| 2026-04-18 10:22 | 54.00016 | 0.32867 | 38211 ft | 434 kts | 296° |
| 2026-04-18 10:22 | 54.03207 | 0.24140 | 38180 ft | 438 kts | 303° |
| 2026-04-18 10:23 | 54.07904 | 0.15010 | 38177 ft | 441 kts | 307° |
| 2026-04-18 10:23 | 54.11305 | 0.08447 | 38173 ft | 441 kts | 306° |
| 2026-04-18 10:24 | 54.15334 | 0.00638 | 38162 ft | 442 kts | 306° |
| 2026-04-18 10:24 | 54.19394 | -0.07244 | 38181 ft | 442 kts | 306° |
| 2026-04-18 10:25 | 54.23451 | -0.15137 | 38176 ft | 442 kts | 306° |
| 2026-04-18 10:25 | 54.27506 | -0.23069 | 38182 ft | 443 kts | 306° |
| 2026-04-18 10:26 | 54.31524 | -0.30974 | 38175 ft | 444 kts | 306° |
| 2026-04-18 10:26 | 54.35578 | -0.38956 | 38169 ft | 444 kts | 306° |
| 2026-04-18 10:27 | 54.39632 | -0.46947 | 38168 ft | 444 kts | 306° |
| 2026-04-18 10:27 | 54.43675 | -0.54966 | 38167 ft | 444 kts | 306° |
| 2026-04-18 10:28 | 54.47687 | -0.62953 | 38161 ft | 444 kts | 306° |
| 2026-04-18 10:28 | 54.51722 | -0.71009 | 38175 ft | 444 kts | 306° |
| 2026-04-18 10:29 | 54.55751 | -0.79077 | 38157 ft | 445 kts | 306° |
| 2026-04-18 10:29 | 54.59787 | -0.87170 | 38149 ft | 445 kts | 306° |
| 2026-04-18 10:30 | 54.63794 | -0.95223 | 38147 ft | 445 kts | 306° |
| 2026-04-18 10:30 | 54.67815 | -1.03356 | 38144 ft | 445 kts | 306° |
| 2026-04-18 10:31 | 54.71834 | -1.11520 | 38156 ft | 446 kts | 306° |
| 2026-04-18 10:31 | 54.73847 | -1.15611 | 37924 ft | 446 kts | 306° |
| 2026-04-18 10:31 | 54.75856 | -1.19699 | 37676 ft | 446 kts | 307° |
| 2026-04-18 10:31 | 54.77840 | -1.23745 | 37416 ft | 447 kts | 307° |
| 2026-04-18 10:32 | 54.79851 | -1.27855 | 37168 ft | 447 kts | 307° |
| 2026-04-18 10:32 | 54.81865 | -1.31978 | 36915 ft | 447 kts | 306° |
| 2026-04-18 10:32 | 54.83875 | -1.36093 | 36662 ft | 447 kts | 306° |
| 2026-04-18 10:32 | 54.85883 | -1.40214 | 36400 ft | 447 kts | 306° |
| 2026-04-18 10:33 | 54.87885 | -1.44338 | 36069 ft | 447 kts | 306° |
| 2026-04-18 10:33 | 54.89899 | -1.48493 | 35227 ft | 452 kts | 306° |
| 2026-04-18 10:33 | 54.91909 | -1.52643 | 34391 ft | 456 kts | 306° |
| 2026-04-18 10:33 | 54.93960 | -1.56884 | 33376 ft | 461 kts | 306° |
| 2026-04-18 10:34 | 54.96021 | -1.61150 | 32507 ft | 461 kts | 305° |
| 2026-04-18 10:34 | 54.98092 | -1.65435 | 31695 ft | 462 kts | 306° |
| 2026-04-18 10:34 | 55.00151 | -1.69699 | 30925 ft | 459 kts | 306° |
| 2026-04-18 10:34 | 55.02205 | -1.73973 | 30004 ft | 461 kts | 306° |
| 2026-04-18 10:35 | 55.04254 | -1.78256 | 29069 ft | 458 kts | 306° |
| 2026-04-18 10:35 | 55.06288 | -1.82511 | 28140 ft | 456 kts | 306° |
| 2026-04-18 10:35 | 55.08307 | -1.86742 | 27372 ft | 450 kts | 306° |
| 2026-04-18 10:35 | 55.10295 | -1.90915 | 26712 ft | 443 kts | 306° |
| 2026-04-18 10:36 | 55.12169 | -1.95034 | 26079 ft | 433 kts | 301° |
| 2026-04-18 10:36 | 55.13715 | -1.99461 | 25398 ft | 425 kts | 297° |
| 2026-04-18 10:36 | 55.15188 | -2.03921 | 24716 ft | 420 kts | 297° |
| 2026-04-18 10:36 | 55.16637 | -2.08321 | 24052 ft | 416 kts | 297° |
| 2026-04-18 10:37 | 55.18071 | -2.12692 | 23332 ft | 412 kts | 297° |
| 2026-04-18 10:37 | 55.19483 | -2.17009 | 22659 ft | 406 kts | 297° |
| 2026-04-18 10:37 | 55.20874 | -2.21263 | 22009 ft | 400 kts | 298° |
| 2026-04-18 10:37 | 55.22227 | -2.25405 | 21409 ft | 395 kts | 298° |
| 2026-04-18 10:38 | 55.23467 | -2.29633 | 20874 ft | 387 kts | 296° |
| 2026-04-18 10:38 | 55.25076 | -2.33465 | 19943 ft | 395 kts | 316° |
| 2026-04-18 10:38 | 55.27318 | -2.36134 | 19560 ft | 389 kts | 331° |
| 2026-04-18 10:38 | 55.29740 | -2.38208 | 18982 ft | 385 kts | 332° |
| 2026-04-18 10:39 | 55.32137 | -2.40270 | 18514 ft | 382 kts | 331° |
| 2026-04-18 10:39 | 55.34516 | -2.42331 | 17987 ft | 380 kts | 331° |
| 2026-04-18 10:39 | 55.36880 | -2.44388 | 17505 ft | 377 kts | 331° |
| 2026-04-18 10:39 | 55.39191 | -2.46400 | 17033 ft | 374 kts | 331° |
| 2026-04-18 10:40 | 55.41514 | -2.48422 | 16520 ft | 372 kts | 331° |
| 2026-04-18 10:40 | 55.43828 | -2.50430 | 16035 ft | 370 kts | 331° |
| 2026-04-18 10:40 | 55.46123 | -2.52422 | 15527 ft | 368 kts | 331° |
| 2026-04-18 10:40 | 55.48410 | -2.54414 | 15021 ft | 365 kts | 331° |
| 2026-04-18 10:41 | 55.50671 | -2.56389 | 14577 ft | 360 kts | 330° |
| 2026-04-18 10:41 | 55.52908 | -2.58348 | 14123 ft | 355 kts | 331° |
| 2026-04-18 10:41 | 55.55112 | -2.60278 | 13645 ft | 351 kts | 331° |
| 2026-04-18 10:41 | 55.57254 | -2.62155 | 13151 ft | 347 kts | 330° |
| 2026-04-18 10:42 | 55.59406 | -2.64040 | 12702 ft | 341 kts | 330° |
| 2026-04-18 10:42 | 55.61508 | -2.65882 | 12312 ft | 335 kts | 330° |
| 2026-04-18 10:42 | 55.63579 | -2.67701 | 11919 ft | 329 kts | 330° |
| 2026-04-18 10:42 | 55.65608 | -2.69488 | 11517 ft | 323 kts | 331° |
| 2026-04-18 10:43 | 55.67611 | -2.71254 | 11129 ft | 318 kts | 330° |
| 2026-04-18 10:43 | 55.69578 | -2.72990 | 10749 ft | 314 kts | 330° |
| 2026-04-18 10:43 | 55.71518 | -2.74704 | 10380 ft | 309 kts | 330° |
| 2026-04-18 10:43 | 55.73401 | -2.76371 | 9986 ft | 305 kts | 330° |
| 2026-04-18 10:44 | 55.75290 | -2.78042 | 9604 ft | 301 kts | 330° |
| 2026-04-18 10:44 | 55.77154 | -2.79689 | 9196 ft | 294 kts | 331° |
| 2026-04-18 10:44 | 55.78938 | -2.81267 | 8793 ft | 279 kts | 330° |
| 2026-04-18 10:44 | 55.80626 | -2.82762 | 8402 ft | 265 kts | 330° |
| 2026-04-18 10:45 | 55.82237 | -2.84193 | 8003 ft | 252 kts | 330° |
| 2026-04-18 10:45 | 55.83776 | -2.85562 | 7624 ft | 245 kts | 330° |
| 2026-04-18 10:45 | 55.85279 | -2.86906 | 7254 ft | 245 kts | 330° |
| 2026-04-18 10:45 | 55.86796 | -2.88262 | 6879 ft | 244 kts | 330° |
| 2026-04-18 10:46 | 55.88315 | -2.89619 | 6504 ft | 244 kts | 330° |
| 2026-04-18 10:46 | 55.89851 | -2.90990 | 6114 ft | 249 kts | 330° |
| 2026-04-18 10:46 | 55.91403 | -2.92378 | 5817 ft | 251 kts | 329° |
| 2026-04-18 10:46 | 55.92960 | -2.93772 | 5551 ft | 250 kts | 330° |
| 2026-04-18 10:47 | 55.94510 | -2.95158 | 5285 ft | 246 kts | 330° |
| 2026-04-18 10:47 | 55.96020 | -2.96510 | 5022 ft | 240 kts | 330° |
| 2026-04-18 10:47 | 55.97470 | -2.97810 | 4767 ft | 233 kts | 330° |
| 2026-04-18 10:47 | 55.98899 | -2.99096 | 4507 ft | 227 kts | 329° |
| 2026-04-18 10:48 | 56.00295 | -3.00350 | 4242 ft | 223 kts | 329° |
| 2026-04-18 10:48 | 56.01655 | -3.01617 | 3980 ft | 217 kts | 323° |
| 2026-04-18 10:48 | 56.02754 | -3.03340 | 3824 ft | 205 kts | 306° |
| 2026-04-18 10:48 | 56.03474 | -3.05461 | 3712 ft | 198 kts | 291° |
| 2026-04-18 10:49 | 56.03816 | -3.07839 | 3581 ft | 198 kts | 276° |
| 2026-04-18 10:49 | 56.03759 | -3.10292 | 3392 ft | 199 kts | 261° |
| 2026-04-18 10:49 | 56.03292 | -3.12619 | 3158 ft | 200 kts | 245° |
| 2026-04-18 10:49 | 56.02591 | -3.14707 | 2892 ft | 197 kts | 243° |
| 2026-04-18 10:50 | 56.01893 | -3.16787 | 2628 ft | 194 kts | 243° |
| 2026-04-18 10:50 | 56.01212 | -3.18815 | 2372 ft | 186 kts | 242° |
| 2026-04-18 10:50 | 56.00560 | -3.20752 | 2144 ft | 177 kts | 243° |
| 2026-04-18 10:50 | 55.99956 | -3.22547 | 1898 ft | 161 kts | 242° |
| 2026-04-18 10:51 | 55.99406 | -3.24178 | 1677 ft | 146 kts | 243° |
| 2026-04-18 10:51 | 55.98900 | -3.25682 | 1488 ft | 136 kts | 243° |
| 2026-04-18 10:51 | 55.98423 | -3.27099 | 1317 ft | 132 kts | 243° |
| 2026-04-18 10:51 | 55.97954 | -3.28494 | 1119 ft | 131 kts | 242° |
| 2026-04-18 10:52 | 55.97490 | -3.29871 | 935 ft | 131 kts | 242° |
| 2026-04-18 10:52 | 55.97023 | -3.31256 | 744 ft | 131 kts | 242° |
| 2026-04-18 10:52 | 55.96551 | -3.32658 | 534 ft | 130 kts | 242° |
| 2026-04-18 10:52 | 55.96094 | -3.34022 | 387 ft | 128 kts | 242° |
| 2026-04-18 10:53 | 55.95625 | -3.35397 | 223 ft | 129 kts | 242° |
| 2026-04-18 10:53 | 55.95176 | -3.36746 | 114 ft | 116 kts | 239° |
| 2026-04-18 10:53 | 55.94844 | -3.37712 | 114 ft | 66 kts | 239° |
| 2026-04-18 10:53 | 55.94726 | -3.38048 | 112 ft | 9 kts | 218° |
| 2026-04-18 10:54 | 55.94663 | -3.38025 | 113 ft | 7 kts | 154° |
| 2026-04-18 10:54 | 55.94640 | -3.38002 | 113 ft | 5 kts | 150° |
| 2026-04-18 10:54 | 55.94601 | -3.37960 | 114 ft | 7 kts | 147° |
| 2026-04-18 10:54 | 55.94588 | -3.37895 | 114 ft | 5 kts | 78° |
| 2026-04-18 10:55 | 55.94614 | -3.37816 | 113 ft | 14 kts | 59° |
| 2026-04-18 10:55 | 55.94668 | -3.37657 | 112 ft | 15 kts | 58° |
| 2026-04-18 10:55 | 55.94718 | -3.37509 | 114 ft | 13 kts | 59° |
| 2026-04-18 10:55 | 55.94764 | -3.37376 | 113 ft | 12 kts | 58° |
| 2026-04-18 10:56 | 55.94804 | -3.37255 | 112 ft | 11 kts | 59° |
| 2026-04-18 10:56 | 55.94846 | -3.37131 | 114 ft | 11 kts | 59° |
| 2026-04-18 10:56 | 55.94884 | -3.37019 | 115 ft | 10 kts | 59° |
| 2026-04-18 10:56 | 55.94922 | -3.36908 | 114 ft | 12 kts | 61° |
| 2026-04-18 10:57 | 55.94897 | -3.36803 | 115 ft | 10 kts | 146° |
| 2026-04-18 10:57 | 55.94839 | -3.36778 | 116 ft | 8 kts | 179° |
| 2026-04-18 10:57 | 55.94789 | -3.36775 | 116 ft | 7 kts | 173° |
| 2026-04-18 10:57 | 55.94756 | -3.36738 | 114 ft | 5 kts | 124° |
| 2026-04-18 10:58 | 55.94751 | -3.36679 | 114 ft | 5 kts | 90° |
| 2026-04-18 10:58 | 55.94751 | -3.36628 | 116 ft | 2 kts | 89° |
| 2026-04-18 10:58 | 55.94751 | -3.36619 | 116 ft | 0 kts | 89° |